Time;durP1;ratioP1;P1;durP2;ratioP2;P2;SDS_P1;SDS_P2;PMS_P1;PMS_P2;Temp;Humidity;BMP_temperature;BMP_pressure;BME280_temperature;BME280_humidity;BME280_pressure;Samples;Min_cycle;Max_cycle;Signal;HPM_P1;HPM_P2
2024/02/05 00:00:37;;;;;;;0.50;0.50;;;;;;;-128.00;-1.00;-1.00;102993;1254;1004467;-76
2024/02/05 00:03:24;;;;;;;1.60;1.10;;;;;;;-128.00;-1.00;-1.00;103054;1253;1058944;-75
2024/02/05 00:05:50;;;;;;;1.20;0.80;;;;;;;-128.00;-1.00;-1.00;103015;1254;1003838;-76
2024/02/05 00:08:17;;;;;;;1.10;0.80;;;;;;;-128.00;-1.00;-1.00;103002;1254;1003745;-79
2024/02/05 00:10:43;;;;;;;2.10;0.80;;;;;;;-128.00;-1.00;-1.00;103041;1254;1003626;-80
2024/02/05 00:13:09;;;;;;;3.10;2.50;;;;;;;-128.00;-1.00;-1.00;104017;1254;1004612;-79
2024/02/05 00:15:36;;;;;;;1.40;0.90;;;;;;;-128.00;-1.00;-1.00;105736;1254;1004531;-75
2024/02/05 00:18:03;;;;;;;3.70;0.90;;;;;;;-128.00;-1.00;-1.00;105574;1253;1004402;-76
2024/02/05 00:20:29;;;;;;;0.80;0.60;;;;;;;-128.00;-1.00;-1.00;103782;1254;1004363;-79
2024/02/05 00:22:56;;;;;;;0.90;0.70;;;;;;;-128.00;-1.00;-1.00;103152;1254;1004432;-80
2024/02/05 00:25:23;;;;;;;1.30;0.80;;;;;;;-128.00;-1.00;-1.00;103144;1254;1004051;-75
2024/02/05 00:27:50;;;;;;;1.00;0.70;;;;;;;-128.00;-1.00;-1.00;103066;1254;1005028;-79
2024/02/05 00:30:16;;;;;;;0.70;0.70;;;;;;;-128.00;-1.00;-1.00;103126;1254;1004302;-80
2024/02/05 00:32:43;;;;;;;0.90;0.80;;;;;;;-128.00;-1.00;-1.00;103049;1253;1004538;-79
2024/02/05 00:35:09;;;;;;;1.60;1.00;;;;;;;-128.00;-1.00;-1.00;103136;1253;1005201;-79
2024/02/05 00:37:36;;;;;;;0.90;0.70;;;;;;;-128.00;-1.00;-1.00;103092;1252;1004336;-76
2024/02/05 00:40:05;;;;;;;1.10;0.80;;;;;;;-128.00;-1.00;-1.00;103065;1253;1003589;-81
2024/02/05 00:42:32;;;;;;;1.50;1.00;;;;;;;-128.00;-1.00;-1.00;103099;1254;1061072;-75
2024/02/05 00:44:58;;;;;;;2.60;1.20;;;;;;;-128.00;-1.00;-1.00;103045;1254;1004463;-80
2024/02/05 00:47:26;;;;;;;6.70;6.00;;;;;;;-128.00;-1.00;-1.00;103217;1254;1004559;-76
2024/02/05 00:49:52;;;;;;;4.30;3.20;;;;;;;-128.00;-1.00;-1.00;105151;1254;1005284;-77
2024/02/05 00:52:20;;;;;;;3.10;2.80;;;;;;;-128.00;-1.00;-1.00;103127;1254;1005379;-75
2024/02/05 00:54:46;;;;;;;3.00;1.90;;;;;;;-128.00;-1.00;-1.00;105673;1253;1004559;-75
2024/02/05 00:57:12;;;;;;;2.00;1.40;;;;;;;-128.00;-1.00;-1.00;105695;1252;1004262;-75
2024/02/05 00:59:39;;;;;;;3.60;1.60;;;;;;;-128.00;-1.00;-1.00;103116;1254;1003855;-79
2024/02/05 01:02:06;;;;;;;3.00;1.90;;;;;;;-128.00;-1.00;-1.00;103052;1253;1005281;-80
2024/02/05 01:04:34;;;;;;;5.90;2.00;;;;;;;-128.00;-1.00;-1.00;103033;1254;1003676;-80
2024/02/05 01:07:00;;;;;;;2.10;1.40;;;;;;;-128.00;-1.00;-1.00;103025;1256;1004621;-80
2024/02/05 01:09:26;;;;;;;1.70;1.10;;;;;;;-128.00;-1.00;-1.00;102934;1256;1005483;-76
2024/02/05 01:11:53;;;;;;;2.80;1.30;;;;;;;-128.00;-1.00;-1.00;102999;1254;1004254;-79
2024/02/05 01:14:19;;;;;;;3.00;1.20;;;;;;;-128.00;-1.00;-1.00;103072;1253;1005379;-75
2024/02/05 01:16:46;;;;;;;2.00;1.20;;;;;;;-128.00;-1.00;-1.00;103018;1254;1005136;-75
2024/02/05 01:19:13;;;;;;;3.60;1.50;;;;;;;-128.00;-1.00;-1.00;102974;1254;1004549;-78
2024/02/05 01:21:39;;;;;;;3.80;1.10;;;;;;;-128.00;-1.00;-1.00;103005;1253;1004781;-76
2024/02/05 01:24:06;;;;;;;2.60;2.10;;;;;;;-128.00;-1.00;-1.00;103002;1254;1004415;-79
2024/02/05 01:26:32;;;;;;;2.10;1.30;;;;;;;-128.00;-1.00;-1.00;102974;1254;1004757;-79
2024/02/05 01:28:59;;;;;;;2.60;1.90;;;;;;;-128.00;-1.00;-1.00;102974;1254;1004089;-79
2024/02/05 01:31:25;;;;;;;1.90;1.00;;;;;;;-128.00;-1.00;-1.00;102968;1253;1004688;-79
2024/02/05 01:33:52;;;;;;;1.60;0.80;;;;;;;-128.00;-1.00;-1.00;103002;1253;1004603;-76
2024/02/05 01:36:19;;;;;;;2.70;0.90;;;;;;;-128.00;-1.00;-1.00;102955;1256;1004044;-76
2024/02/05 01:38:45;;;;;;;1.60;1.10;;;;;;;-128.00;-1.00;-1.00;102897;1254;1004412;-79
2024/02/05 01:41:12;;;;;;;1.40;0.80;;;;;;;-128.00;-1.00;-1.00;102997;1254;1004083;-79
2024/02/05 01:43:38;;;;;;;1.00;0.70;;;;;;;-128.00;-1.00;-1.00;102971;1252;1004194;-76
2024/02/05 01:46:05;;;;;;;2.90;1.60;;;;;;;-128.00;-1.00;-1.00;102988;1254;1004107;-75
2024/02/05 01:48:33;;;;;;;4.00;2.00;;;;;;;-128.00;-1.00;-1.00;102907;1254;1005849;-79
2024/02/05 01:50:59;;;;;;;4.50;2.20;;;;;;;-128.00;-1.00;-1.00;103047;1254;1004217;-79
2024/02/05 01:53:25;;;;;;;7.60;4.50;;;;;;;-128.00;-1.00;-1.00;105087;1252;1005007;-79
2024/02/05 01:55:52;;;;;;;3.70;2.40;;;;;;;-128.00;-1.00;-1.00;105718;1253;1004285;-76
2024/02/05 01:58:19;;;;;;;6.10;3.70;;;;;;;-128.00;-1.00;-1.00;105657;1252;1004261;-75
2024/02/05 02:00:45;;;;;;;4.60;3.50;;;;;;;-128.00;-1.00;-1.00;105733;1252;1004676;-75
2024/02/05 02:03:12;;;;;;;2.80;2.10;;;;;;;-128.00;-1.00;-1.00;105718;1252;1003983;-79
2024/02/05 02:05:38;;;;;;;2.70;1.80;;;;;;;-128.00;-1.00;-1.00;104649;1253;1004912;-79
2024/02/05 02:08:06;;;;;;;3.20;1.70;;;;;;;-128.00;-1.00;-1.00;103016;1254;1004049;-75
2024/02/05 02:10:33;;;;;;;3.50;1.30;;;;;;;-128.00;-1.00;-1.00;102915;1254;1004852;-77
2024/02/05 02:12:59;;;;;;;1.00;0.60;;;;;;;-128.00;-1.00;-1.00;103044;1253;1005204;-75
2024/02/05 02:15:25;;;;;;;1.80;1.00;;;;;;;-128.00;-1.00;-1.00;102954;1253;1005301;-76
2024/02/05 02:17:52;;;;;;;1.80;1.00;;;;;;;-128.00;-1.00;-1.00;104820;1253;1005314;-79
2024/02/05 02:20:20;;;;;;;2.00;1.00;;;;;;;-128.00;-1.00;-1.00;105591;1253;1005047;-79
2024/02/05 02:22:53;;;;;;;1.40;0.80;;;;;;;-128.00;-1.00;-1.00;105680;1253;1003883;-79
2024/02/05 02:25:20;;;;;;;1.90;0.90;;;;;;;-128.00;-1.00;-1.00;105664;1253;1047290;-75
2024/02/05 02:27:46;;;;;;;1.90;0.90;;;;;;;-128.00;-1.00;-1.00;104490;1254;1004265;-75
2024/02/05 02:30:13;;;;;;;2.10;1.30;;;;;;;-128.00;-1.00;-1.00;102923;1253;1004670;-75
2024/02/05 02:32:43;;;;;;;1.40;1.00;;;;;;;-128.00;-1.00;-1.00;102817;1254;1004190;-75
2024/02/05 02:35:15;;;;;;;1.90;1.10;;;;;;;-128.00;-1.00;-1.00;102948;1254;1046273;-75
2024/02/05 02:37:45;;;;;;;2.40;1.30;;;;;;;-128.00;-1.00;-1.00;105629;1253;1047650;-75
2024/02/05 02:40:14;;;;;;;2.40;1.10;;;;;;;-128.00;-1.00;-1.00;105622;1254;1061346;-79
2024/02/05 02:42:40;;;;;;;1.30;0.90;;;;;;;-128.00;-1.00;-1.00;105580;1253;1057093;-79
2024/02/05 02:45:11;;;;;;;3.10;1.60;;;;;;;-128.00;-1.00;-1.00;105583;1253;1003909;-75
2024/02/05 02:47:37;;;;;;;2.00;1.80;;;;;;;-128.00;-1.00;-1.00;105575;1253;1046111;-76
2024/02/05 02:50:04;;;;;;;4.50;3.10;;;;;;;-128.00;-1.00;-1.00;105602;1253;1004896;-75
2024/02/05 02:52:30;;;;;;;3.60;3.20;;;;;;;-128.00;-1.00;-1.00;105317;1253;1004079;-75
2024/02/05 02:54:57;;;;;;;2.90;2.00;;;;;;;-128.00;-1.00;-1.00;102903;1253;1003985;-79
2024/02/05 02:57:23;;;;;;;2.70;1.60;;;;;;;-128.00;-1.00;-1.00;102929;1257;1003610;-75
2024/02/05 02:59:51;;;;;;;2.90;1.30;;;;;;;-128.00;-1.00;-1.00;102950;1254;1005075;-75
2024/02/05 03:02:18;;;;;;;2.40;1.50;;;;;;;-128.00;-1.00;-1.00;102955;1254;1003976;-79
2024/02/05 03:04:44;;;;;;;1.60;1.00;;;;;;;-128.00;-1.00;-1.00;102881;1253;1005281;-75
2024/02/05 03:07:11;;;;;;;4.40;2.20;;;;;;;-128.00;-1.00;-1.00;102992;1253;1004132;-75
2024/02/05 03:09:38;;;;;;;2.90;1.50;;;;;;;-128.00;-1.00;-1.00;103013;1253;1004210;-79
2024/02/05 03:12:04;;;;;;;2.30;1.50;;;;;;;-128.00;-1.00;-1.00;104027;1254;1004180;-75
2024/02/05 03:14:31;;;;;;;2.00;1.20;;;;;;;-128.00;-1.00;-1.00;105640;1253;1003569;-79
2024/02/05 03:16:57;;;;;;;5.80;1.80;;;;;;;-128.00;-1.00;-1.00;105624;1253;1004227;-75
2024/02/05 03:19:24;;;;;;;1.60;1.40;;;;;;;-128.00;-1.00;-1.00;105622;1253;1004334;-79
2024/02/05 03:21:50;;;;;;;2.30;1.30;;;;;;;-128.00;-1.00;-1.00;105626;1252;1004225;-79
2024/02/05 03:24:17;;;;;;;2.00;1.30;;;;;;;-128.00;-1.00;-1.00;105654;1253;1004194;-75
2024/02/05 03:26:43;;;;;;;2.30;2.10;;;;;;;-128.00;-1.00;-1.00;105670;1253;1003449;-75
2024/02/05 03:29:09;;;;;;;2.00;1.70;;;;;;;-128.00;-1.00;-1.00;105682;1252;1004778;-76
2024/02/05 03:31:40;;;;;;;1.40;1.20;;;;;;;-128.00;-1.00;-1.00;105699;1252;1003722;-75
2024/02/05 03:34:07;;;;;;;6.30;4.50;;;;;;;-128.00;-1.00;-1.00;103617;1253;1059857;-77
2024/02/05 03:36:33;;;;;;;9.10;6.30;;;;;;;-128.00;-1.00;-1.00;103263;1253;1004753;-75
2024/02/05 03:39:00;;;;;;;11.40;7.20;;;;;;;-128.00;-1.00;-1.00;105330;1252;1004707;-79
2024/02/05 03:41:26;;;;;;;20.10;11.50;;;;;;;-128.00;-1.00;-1.00;104399;1253;1004658;-79
2024/02/05 03:43:53;;;;;;;14.20;8.30;;;;;;;-128.00;-1.00;-1.00;103071;1254;1005052;-78
2024/02/05 03:46:19;;;;;;;16.70;6.50;;;;;;;-128.00;-1.00;-1.00;102994;1254;1004978;-79
2024/02/05 03:48:53;;;;;;;9.70;3.40;;;;;;;-128.00;-1.00;-1.00;103935;1253;1004633;-75
2024/02/05 03:51:21;;;;;;;4.90;1.90;;;;;;;-128.00;-1.00;-1.00;105725;1253;1046704;-75
2024/02/05 03:53:51;;;;;;;4.60;3.30;;;;;;;-128.00;-1.00;-1.00;105643;1253;1005129;-75
2024/02/05 03:56:18;;;;;;;7.60;3.90;;;;;;;-128.00;-1.00;-1.00;104669;1252;1057456;-75
2024/02/05 03:58:44;;;;;;;3.90;3.00;;;;;;;-128.00;-1.00;-1.00;103877;1252;1005184;-76
2024/02/05 04:01:11;;;;;;;2.50;1.90;;;;;;;-128.00;-1.00;-1.00;105694;1252;1004123;-75
2024/02/05 04:03:37;;;;;;;1.60;1.00;;;;;;;-128.00;-1.00;-1.00;105733;1252;1004941;-80
2024/02/05 04:06:04;;;;;;;1.40;0.90;;;;;;;-128.00;-1.00;-1.00;105702;1252;1004781;-75
2024/02/05 04:08:30;;;;;;;3.60;1.50;;;;;;;-128.00;-1.00;-1.00;103445;1252;1004379;-80
2024/02/05 04:10:57;;;;;;;3.20;1.00;;;;;;;-128.00;-1.00;-1.00;103034;1251;1004923;-75
2024/02/05 04:13:24;;;;;;;4.00;1.40;;;;;;;-128.00;-1.00;-1.00;103029;1251;1003966;-79
2024/02/05 04:15:51;;;;;;;3.80;1.50;;;;;;;-128.00;-1.00;-1.00;103076;1252;1004121;-76
2024/02/05 04:18:18;;;;;;;3.10;1.70;;;;;;;-128.00;-1.00;-1.00;103117;1254;1004134;-79
2024/02/05 04:20:44;;;;;;;8.70;5.30;;;;;;;-128.00;-1.00;-1.00;103044;1253;1004777;-79
2024/02/05 04:23:11;;;;;;;30.90;18.70;;;;;;;-128.00;-1.00;-1.00;103066;1253;1004263;-75
2024/02/05 04:25:37;;;;;;;37.90;26.70;;;;;;;-128.00;-1.00;-1.00;103001;1254;1003851;-76
2024/02/05 04:28:04;;;;;;;9.10;5.50;;;;;;;-128.00;-1.00;-1.00;103003;1253;1004127;-79
2024/02/05 04:30:36;;;;;;;26.10;19.20;;;;;;;-128.00;-1.00;-1.00;102980;1253;1004005;-79
2024/02/05 04:33:04;;;;;;;8.10;6.50;;;;;;;-128.00;-1.00;-1.00;103045;1253;1059195;-79
2024/02/05 04:35:30;;;;;;;12.20;9.30;;;;;;;-128.00;-1.00;-1.00;103020;1253;1004484;-79
2024/02/05 04:37:57;;;;;;;10.70;7.30;;;;;;;-128.00;-1.00;-1.00;103044;1253;1006316;-79
2024/02/05 04:40:23;;;;;;;5.80;3.40;;;;;;;-128.00;-1.00;-1.00;103061;1252;1003956;-79
2024/02/05 04:42:50;;;;;;;2.40;1.80;;;;;;;-128.00;-1.00;-1.00;103026;1253;1004562;-80
2024/02/05 04:45:17;;;;;;;3.30;1.80;;;;;;;-128.00;-1.00;-1.00;103022;1253;1004954;-79
2024/02/05 04:47:43;;;;;;;3.20;1.50;;;;;;;-128.00;-1.00;-1.00;103068;1253;1004793;-79
2024/02/05 04:50:10;;;;;;;26.80;24.00;;;;;;;-128.00;-1.00;-1.00;102995;1254;1004069;-75
2024/02/05 04:52:36;;;;;;;12.60;10.30;;;;;;;-128.00;-1.00;-1.00;102970;1253;1004952;-79
2024/02/05 04:55:03;;;;;;;50.60;41.20;;;;;;;-128.00;-1.00;-1.00;102900;1253;1004228;-79
2024/02/05 04:57:29;;;;;;;11.20;9.90;;;;;;;-128.00;-1.00;-1.00;102929;1252;1006235;-79
2024/02/05 04:59:56;;;;;;;7.10;4.00;;;;;;;-128.00;-1.00;-1.00;102857;1253;1003633;-80
2024/02/05 05:02:23;;;;;;;27.20;12.30;;;;;;;-128.00;-1.00;-1.00;103028;1253;1004668;-75
2024/02/05 05:04:49;;;;;;;23.90;11.50;;;;;;;-128.00;-1.00;-1.00;103043;1251;1004079;-75
2024/02/05 05:07:15;;;;;;;53.80;30.80;;;;;;;-128.00;-1.00;-1.00;103022;1253;1004366;-75
2024/02/05 05:09:42;;;;;;;15.10;11.30;;;;;;;-128.00;-1.00;-1.00;103069;1253;1004523;-79
2024/02/05 05:12:08;;;;;;;13.00;10.40;;;;;;;-128.00;-1.00;-1.00;103108;1253;1003724;-76
2024/02/05 05:14:37;;;;;;;3.80;1.90;;;;;;;-128.00;-1.00;-1.00;103174;1253;1004405;-76
2024/02/05 05:17:03;;;;;;;3.10;2.40;;;;;;;-128.00;-1.00;-1.00;103012;1255;1004438;-79
2024/02/05 05:19:30;;;;;;;4.90;2.10;;;;;;;-128.00;-1.00;-1.00;103180;1253;1005240;-79
2024/02/05 05:21:56;;;;;;;2.40;2.20;;;;;;;-128.00;-1.00;-1.00;103151;1256;1005108;-75
2024/02/05 05:24:23;;;;;;;2.60;2.30;;;;;;;-128.00;-1.00;-1.00;103138;1252;1004923;-75
2024/02/05 05:26:49;;;;;;;2.70;1.80;;;;;;;-128.00;-1.00;-1.00;104147;1253;1005339;-75
2024/02/05 05:29:15;;;;;;;1.70;1.20;;;;;;;-128.00;-1.00;-1.00;105731;1252;1003484;-79
2024/02/05 05:31:42;;;;;;;1.90;1.30;;;;;;;-128.00;-1.00;-1.00;105690;1252;1004722;-76
2024/02/05 05:34:08;;;;;;;1.00;0.70;;;;;;;-128.00;-1.00;-1.00;103059;1252;1003936;-75
2024/02/05 05:36:35;;;;;;;0.50;0.40;;;;;;;-128.00;-1.00;-1.00;103899;1252;1004359;-75
2024/02/05 05:39:02;;;;;;;1.30;0.90;;;;;;;-128.00;-1.00;-1.00;105653;1252;1004651;-75
2024/02/05 05:41:28;;;;;;;0.90;0.70;;;;;;;-128.00;-1.00;-1.00;105695;1252;1003930;-79
2024/02/05 05:43:55;;;;;;;1.00;0.50;;;;;;;-128.00;-1.00;-1.00;105684;1252;1003790;-79
2024/02/05 05:46:21;;;;;;;5.50;4.20;;;;;;;-128.00;-1.00;-1.00;104120;1253;1004218;-75
2024/02/05 05:48:48;;;;;;;8.30;6.70;;;;;;;-128.00;-1.00;-1.00;103058;1252;1004915;-75
2024/02/05 05:51:14;;;;;;;8.30;3.30;;;;;;;-128.00;-1.00;-1.00;103043;1253;1003734;-79
2024/02/05 05:53:41;;;;;;;2.40;1.70;;;;;;;-128.00;-1.00;-1.00;103096;1252;1004751;-79
2024/02/05 05:56:08;;;;;;;2.40;1.90;;;;;;;-128.00;-1.00;-1.00;103049;1253;1004580;-79
2024/02/05 05:58:36;;;;;;;2.80;2.30;;;;;;;-128.00;-1.00;-1.00;103059;1253;1003866;-76
2024/02/05 06:01:05;;;;;;;20.60;16.50;;;;;;;-128.00;-1.00;-1.00;102918;1253;1004957;-79
2024/02/05 06:03:32;;;;;;;6.80;5.50;;;;;;;-128.00;-1.00;-1.00;103100;1253;1046088;-75
2024/02/05 06:05:59;;;;;;;2.90;2.00;;;;;;;-128.00;-1.00;-1.00;103111;1253;1004937;-75
2024/02/05 06:08:25;;;;;;;7.70;6.60;;;;;;;-128.00;-1.00;-1.00;103069;1253;1004938;-79
2024/02/05 06:10:53;;;;;;;3.10;2.30;;;;;;;-128.00;-1.00;-1.00;103264;1252;1005395;-76
2024/02/05 06:13:19;;;;;;;3.10;2.00;;;;;;;-128.00;-1.00;-1.00;105658;1252;1003393;-79
2024/02/05 06:15:46;;;;;;;15.50;13.90;;;;;;;-128.00;-1.00;-1.00;105140;1252;1004667;-76
2024/02/05 06:18:13;;;;;;;5.40;4.90;;;;;;;-128.00;-1.00;-1.00;103066;1252;1004367;-79
2024/02/05 06:20:40;;;;;;;4.40;4.00;;;;;;;-128.00;-1.00;-1.00;103110;1253;1004152;-76
2024/02/05 06:23:07;;;;;;;12.90;6.90;;;;;;;-128.00;-1.00;-1.00;103074;1256;1005276;-76
2024/02/05 06:25:33;;;;;;;4.30;3.90;;;;;;;-128.00;-1.00;-1.00;102992;1253;1004681;-75
2024/02/05 06:27:59;;;;;;;1.90;1.60;;;;;;;-128.00;-1.00;-1.00;102975;1253;1004421;-75
2024/02/05 06:30:29;;;;;;;3.20;2.60;;;;;;;-128.00;-1.00;-1.00;103004;1253;1004579;-80
2024/02/05 06:32:56;;;;;;;1.80;1.40;;;;;;;-128.00;-1.00;-1.00;103064;1253;1061883;-76
2024/02/05 06:35:22;;;;;;;2.40;1.90;;;;;;;-128.00;-1.00;-1.00;103033;1253;1005652;-75
2024/02/05 06:37:49;;;;;;;2.90;1.80;;;;;;;-128.00;-1.00;-1.00;102949;1259;1004753;-79
2024/02/05 06:40:16;;;;;;;1.80;1.30;;;;;;;-128.00;-1.00;-1.00;103063;1253;1004647;-79
2024/02/05 06:42:42;;;;;;;1.60;1.30;;;;;;;-128.00;-1.00;-1.00;103056;1253;1004463;-79
2024/02/05 06:45:10;;;;;;;4.10;3.30;;;;;;;-128.00;-1.00;-1.00;103075;1253;1004999;-75
2024/02/05 06:47:36;;;;;;;1.90;1.70;;;;;;;-128.00;-1.00;-1.00;105669;1252;1004768;-76
2024/02/05 06:50:03;;;;;;;1.70;1.40;;;;;;;-128.00;-1.00;-1.00;105673;1253;1003686;-80
2024/02/05 06:52:31;;;;;;;3.60;2.00;;;;;;;-128.00;-1.00;-1.00;105644;1252;1003913;-76
2024/02/05 06:54:58;;;;;;;3.80;1.30;;;;;;;-128.00;-1.00;-1.00;105675;1252;1004044;-79
2024/02/05 06:57:24;;;;;;;3.70;2.60;;;;;;;-128.00;-1.00;-1.00;103928;1254;1004713;-80
2024/02/05 06:59:51;;;;;;;2.00;1.70;;;;;;;-128.00;-1.00;-1.00;103011;1253;1004663;-75
2024/02/05 07:02:17;;;;;;;2.60;1.90;;;;;;;-128.00;-1.00;-1.00;103111;1253;1005196;-80
2024/02/05 07:04:43;;;;;;;3.70;2.30;;;;;;;-128.00;-1.00;-1.00;103379;1253;1004671;-76
2024/02/05 07:07:10;;;;;;;2.30;1.40;;;;;;;-128.00;-1.00;-1.00;103668;1252;1004242;-76
2024/02/05 07:09:38;;;;;;;3.50;2.80;;;;;;;-128.00;-1.00;-1.00;105633;1252;1003948;-80
2024/02/05 07:12:04;;;;;;;3.90;2.60;;;;;;;-128.00;-1.00;-1.00;105617;1253;1004197;-80
2024/02/05 07:14:31;;;;;;;4.10;3.20;;;;;;;-128.00;-1.00;-1.00;105595;1253;1004271;-79
2024/02/05 07:16:57;;;;;;;7.50;5.90;;;;;;;-128.00;-1.00;-1.00;105566;1252;1004311;-75
2024/02/05 07:19:24;;;;;;;6.80;5.10;;;;;;;-128.00;-1.00;-1.00;103215;1253;1003673;-80
2024/02/05 07:21:51;;;;;;;5.40;4.10;;;;;;;-128.00;-1.00;-1.00;103165;1253;1004688;-76
2024/02/05 07:24:17;;;;;;;2.10;1.70;;;;;;;-128.00;-1.00;-1.00;103085;1253;1004351;-76
2024/02/05 07:26:43;;;;;;;1.80;1.60;;;;;;;-128.00;-1.00;-1.00;103202;1253;1004874;-80
2024/02/05 07:29:10;;;;;;;3.10;2.60;;;;;;;-128.00;-1.00;-1.00;103292;1253;1003885;-76
2024/02/05 07:31:36;;;;;;;3.90;3.00;;;;;;;-128.00;-1.00;-1.00;103220;1253;1004064;-79
2024/02/05 07:34:03;;;;;;;3.30;2.10;;;;;;;-128.00;-1.00;-1.00;105640;1252;1004720;-76
2024/02/05 07:36:30;;;;;;;2.00;1.50;;;;;;;-128.00;-1.00;-1.00;105627;1253;1004381;-77
2024/02/05 07:38:56;;;;;;;2.60;1.60;;;;;;;-128.00;-1.00;-1.00;105632;1252;1004318;-76
2024/02/05 07:41:23;;;;;;;5.90;3.10;;;;;;;-128.00;-1.00;-1.00;105452;1253;1003296;-79
2024/02/05 07:43:49;;;;;;;12.30;6.70;;;;;;;-128.00;-1.00;-1.00;105653;1253;1004604;-80
2024/02/05 07:46:17;;;;;;;3.80;2.80;;;;;;;-128.00;-1.00;-1.00;105545;1252;1004306;-80
2024/02/05 07:48:43;;;;;;;2.80;2.00;;;;;;;-128.00;-1.00;-1.00;105596;1253;1004118;-76
2024/02/05 07:51:10;;;;;;;2.80;2.40;;;;;;;-128.00;-1.00;-1.00;104097;1252;1003832;-79
2024/02/05 07:53:37;;;;;;;4.30;3.40;;;;;;;-128.00;-1.00;-1.00;103953;1252;1004508;-76
2024/02/05 07:56:08;;;;;;;4.90;3.80;;;;;;;-128.00;-1.00;-1.00;105434;1252;1004230;-79
2024/02/05 07:58:36;;;;;;;3.20;1.90;;;;;;;-128.00;-1.00;-1.00;105630;1253;1062240;-80
2024/02/05 08:01:03;;;;;;;2.10;1.80;;;;;;;-128.00;-1.00;-1.00;105623;1252;1004739;-79
2024/02/05 08:03:30;;;;;;;2.10;1.40;;;;;;;-128.00;-1.00;-1.00;105596;1253;1004784;-79
2024/02/05 08:05:57;;;;;;;2.00;1.40;;;;;;;-128.00;-1.00;-1.00;105695;1252;1004376;-79
2024/02/05 08:08:23;;;;;;;1.90;1.40;;;;;;;-128.00;-1.00;-1.00;105657;1252;1004534;-76
2024/02/05 08:10:49;;;;;;;6.60;3.30;;;;;;;-128.00;-1.00;-1.00;105669;1253;1003875;-79
2024/02/05 08:13:16;;;;;;;7.90;4.10;;;;;;;-128.00;-1.00;-1.00;105583;1252;1004409;-76
2024/02/05 08:15:43;;;;;;;6.70;3.00;;;;;;;-128.00;-1.00;-1.00;105542;1252;1004029;-76
2024/02/05 08:18:10;;;;;;;3.20;1.30;;;;;;;-128.00;-1.00;-1.00;105546;1253;1003898;-79
2024/02/05 08:20:36;;;;;;;6.00;3.10;;;;;;;-128.00;-1.00;-1.00;105607;1252;1004831;-79
2024/02/05 08:23:03;;;;;;;13.80;5.60;;;;;;;-128.00;-1.00;-1.00;105625;1252;1004504;-79
2024/02/05 08:25:30;;;;;;;14.30;4.80;;;;;;;-128.00;-1.00;-1.00;105614;1252;1004618;-79
2024/02/05 08:27:58;;;;;;;6.10;2.50;;;;;;;-128.00;-1.00;-1.00;105611;1252;1003894;-75
2024/02/05 08:30:24;;;;;;;10.80;3.60;;;;;;;-128.00;-1.00;-1.00;105504;1251;1004177;-80
2024/02/05 08:32:50;;;;;;;11.10;5.40;;;;;;;-128.00;-1.00;-1.00;105606;1253;1005058;-80
2024/02/05 08:35:17;;;;;;;6.50;3.30;;;;;;;-128.00;-1.00;-1.00;104566;1252;1004556;-75
2024/02/05 08:37:43;;;;;;;5.90;2.30;;;;;;;-128.00;-1.00;-1.00;103352;1253;1004846;-75
2024/02/05 08:40:10;;;;;;;8.10;3.60;;;;;;;-128.00;-1.00;-1.00;103445;1253;1004250;-76
2024/02/05 08:42:36;;;;;;;3.70;2.50;;;;;;;-128.00;-1.00;-1.00;103564;1253;1004650;-75
2024/02/05 08:45:03;;;;;;;16.90;10.70;;;;;;;-128.00;-1.00;-1.00;103459;1252;1004610;-76
2024/02/05 08:47:31;;;;;;;16.20;11.30;;;;;;;-128.00;-1.00;-1.00;103360;1253;1005080;-79
2024/02/05 08:49:58;;;;;;;9.70;6.90;;;;;;;-128.00;-1.00;-1.00;103395;1253;1004850;-80
2024/02/05 08:52:24;;;;;;;7.00;3.50;;;;;;;-128.00;-1.00;-1.00;103518;1255;1004375;-80
2024/02/05 08:54:50;;;;;;;5.20;2.50;;;;;;;-128.00;-1.00;-1.00;103372;1252;1005190;-80
2024/02/05 08:57:17;;;;;;;2.40;1.40;;;;;;;-128.00;-1.00;-1.00;103349;1253;1004845;-80
2024/02/05 08:59:43;;;;;;;2.80;1.40;;;;;;;-128.00;-1.00;-1.00;103261;1252;1003591;-75
2024/02/05 09:02:14;;;;;;;3.00;2.20;;;;;;;-128.00;-1.00;-1.00;103433;1255;1004635;-76
2024/02/05 09:04:41;;;;;;;3.50;2.10;;;;;;;-128.00;-1.00;-1.00;103492;1253;1061751;-76
2024/02/05 09:07:07;;;;;;;6.40;4.00;;;;;;;-128.00;-1.00;-1.00;104143;1253;1004943;-79
2024/02/05 09:09:36;;;;;;;45.40;24.60;;;;;;;-128.00;-1.00;-1.00;105593;1252;1004643;-78
2024/02/05 09:12:03;;;;;;;15.80;8.10;;;;;;;-128.00;-1.00;-1.00;105598;1252;1004400;-78
2024/02/05 09:14:29;;;;;;;10.60;5.90;;;;;;;-128.00;-1.00;-1.00;105629;1252;1004171;-75
2024/02/05 09:16:56;;;;;;;69.40;29.70;;;;;;;-128.00;-1.00;-1.00;105561;1251;1004531;-78
2024/02/05 09:19:22;;;;;;;78.60;28.80;;;;;;;-128.00;-1.00;-1.00;105562;1253;1003597;-75
2024/02/05 09:21:48;;;;;;;124.10;48.90;;;;;;;-128.00;-1.00;-1.00;105626;1251;1004076;-75
2024/02/05 09:24:15;;;;;;;48.30;22.50;;;;;;;-128.00;-1.00;-1.00;105660;1252;1003639;-79
2024/02/05 09:26:41;;;;;;;61.30;25.20;;;;;;;-128.00;-1.00;-1.00;105613;1252;1004268;-79
2024/02/05 09:29:08;;;;;;;56.80;25.20;;;;;;;-128.00;-1.00;-1.00;105630;1253;1004485;-75
2024/02/05 09:31:34;;;;;;;45.90;19.30;;;;;;;-128.00;-1.00;-1.00;105626;1252;1004374;-78
2024/02/05 09:34:00;;;;;;;16.00;7.70;;;;;;;-128.00;-1.00;-1.00;105652;1253;1004634;-79
2024/02/05 09:36:27;;;;;;;23.40;11.30;;;;;;;-128.00;-1.00;-1.00;105614;1252;1004142;-78
2024/02/05 09:38:53;;;;;;;13.90;7.60;;;;;;;-128.00;-1.00;-1.00;105606;1253;1003400;-78
2024/02/05 09:41:24;;;;;;;34.30;20.90;;;;;;;-128.00;-1.00;-1.00;105603;1253;1004306;-79
2024/02/05 09:43:50;;;;;;;30.70;21.50;;;;;;;-128.00;-1.00;-1.00;105528;1253;1045066;-75
2024/02/05 09:46:18;;;;;;;9.20;5.70;;;;;;;-128.00;-1.00;-1.00;105656;1253;1004674;-78
2024/02/05 09:48:45;;;;;;;6.90;3.20;;;;;;;-128.00;-1.00;-1.00;105613;1252;1004028;-75
2024/02/05 09:51:11;;;;;;;8.40;4.80;;;;;;;-128.00;-1.00;-1.00;105591;1253;1003574;-78
2024/02/05 09:53:39;;;;;;;6.70;4.20;;;;;;;-128.00;-1.00;-1.00;105579;1253;1004537;-79
2024/02/05 09:56:06;;;;;;;3.50;1.60;;;;;;;-128.00;-1.00;-1.00;105644;1255;1004216;-79
2024/02/05 09:58:33;;;;;;;6.40;3.80;;;;;;;-128.00;-1.00;-1.00;105501;1252;1004187;-75
2024/02/05 10:00:59;;;;;;;8.80;4.90;;;;;;;-128.00;-1.00;-1.00;105601;1253;1004432;-74
2024/02/05 10:03:27;;;;;;;28.10;12.30;;;;;;;-128.00;-1.00;-1.00;105535;1253;1003700;-79
2024/02/05 10:05:54;;;;;;;20.90;10.20;;;;;;;-128.00;-1.00;-1.00;105594;1253;1059606;-80
2024/02/05 10:08:21;;;;;;;29.10;12.10;;;;;;;-128.00;-1.00;-1.00;105571;1253;1004504;-75
2024/02/05 10:10:47;;;;;;;54.40;23.00;;;;;;;-128.00;-1.00;-1.00;105615;1253;1004681;-74
2024/02/05 10:13:14;;;;;;;37.00;17.60;;;;;;;-128.00;-1.00;-1.00;105688;1252;1004363;-79
2024/02/05 10:15:41;;;;;;;29.10;14.00;;;;;;;-128.00;-1.00;-1.00;105468;1252;1005109;-79
2024/02/05 10:18:10;;;;;;;7.00;3.00;;;;;;;-128.00;-1.00;-1.00;105607;1252;1004319;-79
2024/02/05 10:20:37;;;;;;;14.20;6.80;;;;;;;-128.00;-1.00;-1.00;105585;1253;1045647;-79
2024/02/05 10:23:04;;;;;;;12.60;7.10;;;;;;;-128.00;-1.00;-1.00;105572;1252;1004987;-79
2024/02/05 10:25:30;;;;;;;19.70;9.00;;;;;;;-128.00;-1.00;-1.00;105606;1253;1004012;-79
2024/02/05 10:28:03;;;;;;;58.70;27.10;;;;;;;-128.00;-1.00;-1.00;105622;1253;1003684;-78
2024/02/05 10:30:30;;;;;;;34.20;15.80;;;;;;;-128.00;-1.00;-1.00;105616;1252;1058499;-79
2024/02/05 10:32:57;;;;;;;204.00;89.60;;;;;;;-128.00;-1.00;-1.00;105551;1252;1003504;-75
2024/02/05 10:35:24;;;;;;;81.50;37.20;;;;;;;-128.00;-1.00;-1.00;105656;1253;1004001;-75
2024/02/05 10:37:51;;;;;;;200.20;82.20;;;;;;;-128.00;-1.00;-1.00;105503;1252;1004233;-75
2024/02/05 10:40:17;;;;;;;41.80;20.00;;;;;;;-128.00;-1.00;-1.00;105610;1253;1005339;-79
2024/02/05 10:42:44;;;;;;;48.40;23.80;;;;;;;-128.00;-1.00;-1.00;105618;1252;1004451;-79
2024/02/05 10:45:10;;;;;;;33.70;15.90;;;;;;;-128.00;-1.00;-1.00;105610;1252;1003197;-78
2024/02/05 10:47:38;;;;;;;38.50;17.60;;;;;;;-128.00;-1.00;-1.00;105479;1253;1004297;-79
2024/02/05 10:50:09;;;;;;;29.90;15.60;;;;;;;-128.00;-1.00;-1.00;105544;1256;1004005;-79
2024/02/05 10:52:36;;;;;;;18.30;10.30;;;;;;;-128.00;-1.00;-1.00;105618;1253;1056845;-79
2024/02/05 10:55:06;;;;;;;47.80;23.50;;;;;;;-128.00;-1.00;-1.00;105643;1253;1003663;-79
2024/02/05 10:57:36;;;;;;;19.90;10.30;;;;;;;-128.00;-1.00;-1.00;105625;1252;1045213;-75
2024/02/05 11:00:03;;;;;;;20.60;13.10;;;;;;;-128.00;-1.00;-1.00;105671;1253;1047189;-79
2024/02/05 11:02:33;;;;;;;14.00;10.00;;;;;;;-128.00;-1.00;-1.00;105673;1252;1003816;-75
2024/02/05 11:05:02;;;;;;;122.40;52.90;;;;;;;-128.00;-1.00;-1.00;105082;1253;1058660;-75
2024/02/05 11:07:35;;;;;;;25.70;12.20;;;;;;;-128.00;-1.00;-1.00;103207;1253;1060130;-79
2024/02/05 11:10:02;;;;;;;27.10;12.30;;;;;;;-128.00;-1.00;-1.00;103307;1253;1045586;-79
2024/02/05 11:12:31;;;;;;;22.50;10.90;;;;;;;-128.00;-1.00;-1.00;103225;1253;1004279;-78